Time;durP1;ratioP1;P1;durP2;ratioP2;P2;SDS_P1;SDS_P2;PMS_P1;PMS_P2;Temp;Humidity;BMP_temperature;BMP_pressure;BME280_temperature;BME280_humidity;BME280_pressure;Samples;Min_cycle;Max_cycle;Signal;HPM_P1;HPM_P2
2023/07/31 00:01:22;;;;;;;5.15;1.58;;;;;;;20.35;63.71;99877.31;6069862;23;20021;-82
2023/07/31 00:03:49;;;;;;;3.53;1.80;;;;;;;20.34;63.58;99874.81;6094485;23;20017;-81
2023/07/31 00:06:16;;;;;;;3.88;1.52;;;;;;;20.37;63.48;99874.41;6119236;23;20335;-81
2023/07/31 00:08:43;;;;;;;8.02;2.00;;;;;;;20.36;63.19;99867.38;6093249;23;20104;-81
2023/07/31 00:11:10;;;;;;;5.43;1.90;;;;;;;20.37;63.26;99880.63;6070499;23;20025;-82
2023/07/31 00:13:36;;;;;;;4.15;2.33;;;;;;;20.35;63.21;99874.63;6143127;23;20036;-82
2023/07/31 00:16:03;;;;;;;6.13;2.10;;;;;;;20.33;63.05;99868.59;6094537;23;20053;-83
2023/07/31 00:18:30;;;;;;;7.97;2.15;;;;;;;20.36;63.08;99875.47;6118006;23;20053;-82
2023/07/31 00:20:57;;;;;;;4.78;1.50;;;;;;;20.34;63.33;99869.41;6094808;23;20032;-81
2023/07/31 00:23:23;;;;;;;6.22;1.70;;;;;;;20.36;63.18;99878.16;6118388;23;20013;-81
2023/07/31 00:25:50;;;;;;;2.72;1.75;;;;;;;20.35;63.06;99871.94;6094229;23;20108;-81
2023/07/31 00:28:17;;;;;;;3.53;1.40;;;;;;;20.36;63.07;99876.28;6093864;23;20049;-82
2023/07/31 00:30:44;;;;;;;6.05;2.08;;;;;;;20.36;63.35;99887.06;6094436;23;20032;-81
2023/07/31 00:33:10;;;;;;;7.68;1.77;;;;;;;20.34;63.33;99886.44;6094052;23;20101;-82
2023/07/31 00:35:37;;;;;;;5.95;2.00;;;;;;;20.31;63.24;99881.44;6070248;23;20033;-83
2023/07/31 00:38:04;;;;;;;9.80;1.98;;;;;;;20.32;63.36;99882.25;6093597;23;20026;-82
2023/07/31 00:40:37;;;;;;;3.90;1.70;;;;;;;20.28;64.21;99881.84;6093766;23;20025;-81
2023/07/31 00:43:04;;;;;;;3.75;1.50;;;;;;;20.27;64.22;99871.25;6094225;23;20364;-81
2023/07/31 00:45:32;;;;;;;7.07;1.75;;;;;;;20.25;64.82;99870.59;6094172;23;20021;-82
2023/07/31 00:47:59;;;;;;;5.35;2.20;;;;;;;20.24;65.23;99877.03;6093956;23;20106;-81
2023/07/31 00:50:26;;;;;;;5.93;1.80;;;;;;;20.22;65.38;99869.13;6095035;23;20040;-81
2023/07/31 00:52:53;;;;;;;3.10;1.30;;;;;;;20.20;65.49;99867.66;6117359;23;20034;-81
2023/07/31 00:55:21;;;;;;;6.32;1.70;;;;;;;20.18;65.64;99867.88;6093777;23;20030;-82
2023/07/31 00:57:48;;;;;;;4.25;2.15;;;;;;;20.17;66.13;99871.59;6119039;23;20037;-81
2023/07/31 01:00:15;;;;;;;3.38;1.42;;;;;;;20.15;65.88;99870.97;6094453;23;20032;-82
2023/07/31 01:02:42;;;;;;;6.57;1.52;;;;;;;20.13;65.42;99870.34;6093449;23;20029;-81
2023/07/31 01:05:09;;;;;;;4.38;1.42;;;;;;;20.10;65.33;99859.94;6118116;23;20541;-81
2023/07/31 01:07:59;;;;;;;6.65;1.95;;;;;;;19.99;66.20;99860.47;6117838;23;20053;-81
2023/07/31 01:10:37;;;;;;;7.75;1.92;;;;;;;20.02;65.84;99855.50;6117597;23;20462;-82
2023/07/31 01:13:04;;;;;;;3.90;1.75;;;;;;;20.07;65.82;99857.63;6069440;23;20032;-82
2023/07/31 01:15:31;;;;;;;4.97;1.80;;;;;;;20.07;65.68;99846.84;6094516;23;20390;-81
2023/07/31 01:17:57;;;;;;;4.65;1.90;;;;;;;20.03;66.00;99841.03;6115733;23;20397;-81
2023/07/31 01:20:26;;;;;;;4.05;1.70;;;;;;;20.04;65.70;99842.69;6093660;23;20050;-82
2023/07/31 01:23:01;;;;;;;6.75;1.63;;;;;;;20.02;66.03;99841.22;6093931;23;20025;-82
2023/07/31 01:25:35;;;;;;;6.00;1.58;;;;;;;19.97;65.79;99838.28;6118547;23;20022;-81
2023/07/31 01:28:07;;;;;;;6.65;2.10;;;;;;;19.98;66.13;99838.09;6117714;23;20552;-81
2023/07/31 01:30:37;;;;;;;2.83;1.75;;;;;;;19.97;65.83;99836.41;6094469;23;20025;-81
2023/07/31 01:33:07;;;;;;;5.88;1.60;;;;;;;19.93;65.81;99830.59;6117848;23;20092;-81
2023/07/31 01:35:34;;;;;;;3.42;1.45;;;;;;;19.93;65.92;99827.06;6095038;23;20342;-81
2023/07/31 01:38:02;;;;;;;3.78;1.60;;;;;;;19.91;66.04;99829.94;6092606;23;20049;-81
2023/07/31 01:40:28;;;;;;;4.90;1.60;;;;;;;19.92;65.99;99828.06;6070002;23;20030;-81
2023/07/31 01:42:55;;;;;;;6.50;1.77;;;;;;;19.89;65.93;99831.16;6069397;23;20022;-81
2023/07/31 01:45:22;;;;;;;7.63;2.03;;;;;;;19.86;66.33;99828.88;6094035;23;20021;-81
2023/07/31 01:47:49;;;;;;;5.18;1.70;;;;;;;19.85;66.33;99827.22;6117621;23;20080;-82
2023/07/31 01:50:16;;;;;;;4.05;1.77;;;;;;;19.86;66.37;99829.69;6093171;23;20064;-81
2023/07/31 01:52:42;;;;;;;3.70;1.67;;;;;;;19.84;66.44;99820.16;6094592;23;20021;-81
2023/07/31 01:55:09;;;;;;;4.00;1.75;;;;;;;19.81;66.08;99821.38;6093290;23;20033;-82
2023/07/31 01:57:37;;;;;;;6.68;2.08;;;;;;;19.80;65.97;99826.97;6096169;23;20045;-81
2023/07/31 02:00:05;;;;;;;4.18;1.83;;;;;;;19.78;66.01;99815.56;6120407;23;20409;-81
2023/07/31 02:02:37;;;;;;;6.78;2.22;;;;;;;19.76;66.43;99804.97;6094998;23;20021;-81
2023/07/31 02:05:05;;;;;;;4.35;2.00;;;;;;;19.78;66.66;99810.16;6119095;23;20037;-81
2023/07/31 02:07:32;;;;;;;5.40;1.73;;;;;;;19.75;66.73;99810.56;6119753;23;20022;-82
2023/07/31 02:09:58;;;;;;;10.07;2.35;;;;;;;19.75;66.85;99810.56;6095565;23;20025;-82
2023/07/31 02:12:25;;;;;;;7.63;1.90;;;;;;;19.73;66.65;99814.28;6095010;23;20125;-82
2023/07/31 02:14:52;;;;;;;7.72;2.30;;;;;;;19.71;66.40;99808.25;6069982;23;20040;-84
2023/07/31 02:17:19;;;;;;;5.97;1.83;;;;;;;19.68;66.14;99794.34;6095886;23;20014;-81
2023/07/31 02:19:46;;;;;;;5.60;2.00;;;;;;;19.68;65.58;99800.56;6070409;23;20029;-82
2023/07/31 02:22:12;;;;;;;5.00;1.75;;;;;;;19.67;65.27;99798.91;6096227;23;20029;-81
2023/07/31 02:24:39;;;;;;;7.63;1.65;;;;;;;19.64;66.10;99791.19;6093777;23;20022;-81
2023/07/31 02:27:06;;;;;;;7.03;2.17;;;;;;;19.66;66.46;99788.28;6118782;23;20033;-82
2023/07/31 02:29:33;;;;;;;3.10;1.60;;;;;;;19.65;66.72;99795.53;6119778;23;20039;-81
2023/07/31 02:31:59;;;;;;;5.70;1.73;;;;;;;19.62;66.64;99790.53;6071882;23;20109;-81
2023/07/31 02:34:26;;;;;;;4.80;1.65;;;;;;;19.64;66.81;99793.03;6093848;23;20026;-82
2023/07/31 02:36:53;;;;;;;5.68;1.80;;;;;;;19.64;67.02;99787.63;6119062;23;20104;-81
2023/07/31 02:39:20;;;;;;;4.55;2.00;;;;;;;19.64;66.62;99793.03;6071433;23;20025;-81
2023/07/31 02:41:47;;;;;;;8.45;1.85;;;;;;;19.62;66.47;99787.84;6094770;23;20037;-83
2023/07/31 02:44:14;;;;;;;5.50;1.67;;;;;;;19.62;66.41;99790.53;6095391;23;20473;-81
2023/07/31 02:46:41;;;;;;;2.90;1.92;;;;;;;19.61;66.04;99791.56;6093648;23;20029;-81
2023/07/31 02:49:08;;;;;;;7.03;1.67;;;;;;;19.61;66.44;99793.41;6118791;23;20029;-83
2023/07/31 02:51:35;;;;;;;9.73;2.65;;;;;;;19.58;67.03;99791.13;6120128;23;20028;-81
2023/07/31 02:54:02;;;;;;;8.50;1.88;;;;;;;19.57;66.37;99793.00;6143915;23;20333;-81
2023/07/31 02:56:28;;;;;;;7.90;1.92;;;;;;;19.58;66.82;99788.44;6071232;23;20458;-81
2023/07/31 02:58:55;;;;;;;5.13;2.00;;;;;;;19.58;67.24;99791.13;6094919;23;20017;-81
2023/07/31 03:01:22;;;;;;;4.97;2.15;;;;;;;19.56;67.40;99793.16;6118221;23;20041;-82
2023/07/31 03:03:49;;;;;;;4.88;2.03;;;;;;;19.52;67.48;99798.13;6069932;23;20017;-81
2023/07/31 03:06:16;;;;;;;5.72;2.03;;;;;;;19.49;67.78;99785.06;6119618;23;20108;-81
2023/07/31 03:08:43;;;;;;;5.20;2.15;;;;;;;19.44;67.88;99774.03;6095422;23;20080;-81
2023/07/31 03:11:10;;;;;;;7.63;1.92;;;;;;;19.44;68.05;99776.72;6119227;23;20441;-81
2023/07/31 03:13:37;;;;;;;6.35;2.15;;;;;;;19.43;68.07;99777.75;6117059;23;20481;-81
2023/07/31 03:16:04;;;;;;;8.85;2.30;;;;;;;19.41;68.15;99780.66;6070113;23;20025;-81
2023/07/31 03:18:30;;;;;;;6.32;1.92;;;;;;;19.41;68.51;99788.72;6119143;23;20353;-81
2023/07/31 03:20:57;;;;;;;9.05;2.15;;;;;;;19.38;68.29;99783.69;6069860;23;20106;-82
2023/07/31 03:23:25;;;;;;;4.70;2.00;;;;;;;19.38;68.37;99780.19;6069609;23;20473;-81
2023/07/31 03:25:57;;;;;;;4.35;1.80;;;;;;;19.37;68.25;99784.75;6140863;23;20022;-81
2023/07/31 03:28:27;;;;;;;6.03;2.10;;;;;;;19.39;68.39;99779.19;6118562;23;20023;-81
2023/07/31 03:30:54;;;;;;;3.20;1.80;;;;;;;19.37;68.41;99787.44;6070654;23;20994;-83
2023/07/31 03:33:21;;;;;;;7.90;2.10;;;;;;;19.38;67.24;99783.69;6117614;23;20350;-81
2023/07/31 03:35:49;;;;;;;11.25;2.60;;;;;;;19.37;66.59;99781.22;6117432;23;20033;-81
2023/07/31 03:38:15;;;;;;;5.40;2.13;;;;;;;19.38;66.77;99783.69;6093559;23;20017;-82
2023/07/31 03:40:42;;;;;;;6.93;1.80;;;;;;;19.36;66.83;99779.53;6118960;23;20045;-81
2023/07/31 03:43:10;;;;;;;9.13;2.50;;;;;;;19.38;66.64;99783.69;6093586;23;20088;-81
2023/07/31 03:45:39;;;;;;;5.55;2.00;;;;;;;19.38;66.69;99782.88;6119276;23;20025;-86
2023/07/31 03:48:07;;;;;;;9.10;2.38;;;;;;;19.36;66.77;99776.84;6047629;23;20026;-86
2023/07/31 03:50:34;;;;;;;7.25;2.10;;;;;;;19.34;67.38;99779.75;6094373;23;20025;-85
2023/07/31 03:53:01;;;;;;;12.45;2.20;;;;;;;19.35;67.81;99781.41;6070761;23;20056;-86
2023/07/31 03:55:28;;;;;;;4.32;1.80;;;;;;;19.36;68.18;99780.41;6070776;23;20453;-85
2023/07/31 03:57:54;;;;;;;4.88;1.70;;;;;;;19.34;68.47;99774.38;6095093;23;20112;-86
2023/07/31 04:00:22;;;;;;;5.68;1.92;;;;;;;19.34;68.47;99787.84;6070414;23;20045;-86
2023/07/31 04:02:49;;;;;;;5.53;1.90;;;;;;;19.30;68.52;99791.94;6095169;23;20096;-86
2023/07/31 04:05:16;;;;;;;4.80;1.92;;;;;;;19.29;68.49;99791.09;6093761;23;20028;-86
2023/07/31 04:07:43;;;;;;;2.92;1.90;;;;;;;19.26;68.63;99788.78;6070814;23;20358;-85
2023/07/31 04:10:10;;;;;;;4.90;1.77;;;;;;;19.25;68.64;99779.03;6071909;23;20048;-85
2023/07/31 04:12:39;;;;;;;8.00;2.30;;;;;;;19.25;68.63;99784.41;6070994;23;20037;-86
2023/07/31 04:15:06;;;;;;;5.38;2.47;;;;;;;19.24;68.58;99777.38;6069484;23;20032;-86
2023/07/31 04:17:33;;;;;;;5.80;1.95;;;;;;;19.23;68.45;99778.44;6094600;23;20092;-86
2023/07/31 04:20:00;;;;;;;5.35;2.08;;;;;;;19.26;68.79;99788.78;6095623;23;20164;-85
2023/07/31 04:22:27;;;;;;;5.15;2.10;;;;;;;19.24;68.60;99782.78;6070351;23;20614;-86
2023/07/31 04:24:57;;;;;;;7.18;2.75;;;;;;;19.26;68.72;99788.78;6086890;23;20029;-90
2023/07/31 04:27:28;;;;;;;7.82;2.35;;;;;;;19.24;69.01;99780.06;6058525;23;20049;-90
2023/07/31 04:29:55;;;;;;;4.95;2.42;;;;;;;19.25;69.42;99780.91;6071043;23;20446;-91
2023/07/31 04:32:22;;;;;;;7.22;1.90;;;;;;;19.24;69.14;99777.38;6095815;23;20025;-89
2023/07/31 04:34:49;;;;;;;6.88;2.30;;;;;;;19.25;68.83;99779.03;6095442;23;20116;-87
2023/07/31 04:37:16;;;;;;;7.20;2.47;;;;;;;19.24;68.91;99790.84;6094106;23;20090;-86
2023/07/31 04:39:43;;;;;;;5.00;2.53;;;;;;;19.26;69.40;99782.59;6092989;23;20033;-86
2023/07/31 04:42:10;;;;;;;7.60;2.20;;;;;;;19.27;69.28;99777.00;6070262;23;20025;-86
2023/07/31 04:44:37;;;;;;;11.13;3.90;;;;;;;19.28;69.39;99773.28;6094226;23;20030;-85
2023/07/31 04:47:04;;;;;;;5.07;1.98;;;;;;;19.28;69.73;99769.75;6095150;23;20394;-87
2023/07/31 04:49:32;;;;;;;7.65;2.47;;;;;;;19.28;69.36;99772.44;6094339;23;20040;-86
2023/07/31 04:51:59;;;;;;;6.28;2.30;;;;;;;19.29;69.58;99771.44;6071113;23;20033;-87
2023/07/31 04:54:25;;;;;;;6.85;2.20;;;;;;;19.25;69.55;99765.56;6070105;23;20089;-87
2023/07/31 04:56:53;;;;;;;6.25;2.55;;;;;;;19.27;69.82;99771.59;6095699;23;20092;-87
2023/07/31 04:59:20;;;;;;;5.60;2.30;;;;;;;19.26;69.93;99769.13;6094298;23;20029;-87
2023/07/31 05:01:47;;;;;;;4.63;1.90;;;;;;;19.23;69.50;99769.50;6071481;23;20025;-86
2023/07/31 05:04:14;;;;;;;4.57;2.15;;;;;;;19.24;69.39;99761.22;6093178;23;20033;-86
2023/07/31 05:06:41;;;;;;;6.65;2.30;;;;;;;19.25;69.63;99760.19;6119206;23;20076;-87
2023/07/31 05:09:09;;;;;;;7.68;2.28;;;;;;;19.22;69.44;99755.19;6071313;23;20033;-86
2023/07/31 05:11:36;;;;;;;7.55;2.13;;;;;;;19.25;69.37;99751.28;6119337;23;20025;-87
2023/07/31 05:14:03;;;;;;;5.05;2.95;;;;;;;19.26;69.24;99747.59;6093252;23;20547;-86
2023/07/31 05:16:29;;;;;;;6.40;2.22;;;;;;;19.26;68.89;99747.59;6094090;23;20024;-86
2023/07/31 05:18:56;;;;;;;4.93;2.30;;;;;;;19.29;69.23;99752.56;6070706;23;20021;-87
2023/07/31 05:21:24;;;;;;;4.45;2.45;;;;;;;19.27;69.15;99750.06;6118930;23;20023;-86
2023/07/31 05:23:50;;;;;;;5.53;2.10;;;;;;;19.29;69.38;99748.03;6094320;23;20076;-86
2023/07/31 05:26:17;;;;;;;6.80;2.22;;;;;;;19.30;69.73;99751.53;6070246;23;20105;-86
2023/07/31 05:28:45;;;;;;;8.18;2.20;;;;;;;19.33;69.16;99753.00;6096695;23;20571;-87
2023/07/31 05:31:12;;;;;;;6.65;2.47;;;;;;;19.31;69.13;99745.16;6096730;23;20045;-87
2023/07/31 05:33:39;;;;;;;3.22;2.17;;;;;;;19.36;68.73;99747.22;6120059;23;20040;-87
2023/07/31 05:36:05;;;;;;;4.95;2.17;;;;;;;19.41;68.98;99750.16;6071166;23;20076;-86
2023/07/31 05:38:32;;;;;;;7.70;2.00;;;;;;;19.42;68.80;99750.00;6096913;23;20021;-86
2023/07/31 05:40:59;;;;;;;6.50;2.22;;;;;;;19.44;69.28;99747.13;6048457;23;20484;-86
2023/07/31 05:43:26;;;;;;;5.43;2.28;;;;;;;19.47;69.25;99746.72;6072769;23;20545;-86
2023/07/31 05:45:53;;;;;;;7.80;1.90;;;;;;;19.47;68.52;99741.31;6072144;23;20458;-87
2023/07/31 05:48:20;;;;;;;7.75;2.33;;;;;;;19.51;68.90;99740.75;6096942;23;20027;-86
2023/07/31 05:50:47;;;;;;;8.43;2.33;;;;;;;19.55;69.02;99733.09;6072298;23;20025;-87
2023/07/31 05:53:14;;;;;;;4.38;1.90;;;;;;;19.61;68.81;99732.28;6096187;23;20040;-86
2023/07/31 05:55:41;;;;;;;5.60;1.85;;;;;;;19.63;68.88;99732.94;6096036;23;20398;-87
2023/07/31 05:58:08;;;;;;;4.30;2.25;;;;;;;19.64;68.28;99731.94;6097228;23;20085;-86
2023/07/31 06:00:35;;;;;;;3.30;2.00;;;;;;;19.67;67.59;99734.25;6096167;23;20331;-86
2023/07/31 06:03:02;;;;;;;4.75;2.20;;;;;;;19.70;67.89;99733.84;6094835;23;20052;-86
2023/07/31 06:05:29;;;;;;;5.75;2.40;;;;;;;19.71;68.15;99742.75;6095942;23;20037;-86
2023/07/31 06:07:57;;;;;;;5.07;2.28;;;;;;;19.73;68.43;99744.22;6096399;23;20025;-87
2023/07/31 06:10:24;;;;;;;8.32;2.45;;;;;;;19.77;68.03;99733.91;6048402;23;20346;-87
2023/07/31 06:12:51;;;;;;;4.88;1.92;;;;;;;19.81;68.05;99737.84;6071283;23;20017;-86
2023/07/31 06:15:19;;;;;;;5.82;2.38;;;;;;;19.87;67.54;99738.91;6120995;23;20045;-86
2023/07/31 06:17:46;;;;;;;6.57;2.30;;;;;;;19.89;67.40;99729.59;6095544;23;20021;-86
2023/07/31 06:20:13;;;;;;;8.57;2.60;;;;;;;20.00;66.57;99738.16;6072131;23;20036;-87
2023/07/31 06:22:40;;;;;;;5.18;2.05;;;;;;;20.09;65.76;99729.69;6096639;23;20010;-87
2023/07/31 06:25:07;;;;;;;6.55;2.17;;;;;;;20.16;65.31;99733.25;6070921;23;20513;-87
2023/07/31 06:27:33;;;;;;;4.60;2.20;;;;;;;20.25;63.83;99730.38;6095574;23;20028;-87
2023/07/31 06:30:00;;;;;;;5.18;2.22;;;;;;;20.29;63.35;99737.06;6072658;23;20045;-86
2023/07/31 06:32:28;;;;;;;4.80;2.25;;;;;;;20.29;62.73;99734.34;6120977;23;20026;-87
2023/07/31 06:34:55;;;;;;;7.35;2.30;;;;;;;20.29;62.06;99729.78;6070811;23;20021;-87
2023/07/31 06:37:22;;;;;;;11.10;2.63;;;;;;;20.30;62.03;99720.69;6072533;23;20379;-87
2023/07/31 06:39:49;;;;;;;7.13;2.15;;;;;;;20.32;62.09;99721.28;6095651;23;20052;-86
2023/07/31 06:42:16;;;;;;;3.65;1.95;;;;;;;20.33;62.37;99728.38;6096308;23;20097;-87
2023/07/31 06:44:43;;;;;;;5.50;2.13;;;;;;;20.33;62.00;99712.19;6072469;23;20009;-87
2023/07/31 06:47:09;;;;;;;8.00;2.25;;;;;;;20.34;61.98;99719.22;6095569;23;20349;-86
2023/07/31 06:49:36;;;;;;;10.43;2.33;;;;;;;20.33;61.66;99724.84;6096202;23;20021;-87
2023/07/31 06:52:03;;;;;;;4.10;2.10;;;;;;;20.35;61.81;99711.97;6072242;23;20059;-87
2023/07/31 06:54:30;;;;;;;4.50;2.03;;;;;;;20.35;61.49;99726.31;6071068;23;20037;-86
2023/07/31 06:56:57;;;;;;;4.85;2.28;;;;;;;20.38;61.81;99725.06;6145591;23;20092;-87
2023/07/31 06:59:24;;;;;;;6.78;2.15;;;;;;;20.42;60.77;99726.31;6072356;23;20041;-86
2023/07/31 07:01:51;;;;;;;5.32;2.17;;;;;;;20.41;61.13;99727.34;6095937;23;20025;-86
2023/07/31 07:04:18;;;;;;;7.47;2.13;;;;;;;20.41;60.96;99726.53;6119039;23;20529;-87
2023/07/31 07:06:45;;;;;;;5.10;2.17;;;;;;;20.43;61.11;99722.59;6072162;23;20021;-87
2023/07/31 07:09:11;;;;;;;7.43;2.20;;;;;;;20.44;60.93;99718.03;6095305;23;20021;-87
2023/07/31 07:11:38;;;;;;;4.57;2.03;;;;;;;20.41;61.15;99707.66;6072658;23;20022;-86
2023/07/31 07:14:05;;;;;;;8.13;1.90;;;;;;;20.44;60.82;99724.25;6094310;23;20080;-87
2023/07/31 07:16:32;;;;;;;4.88;1.88;;;;;;;20.44;60.81;99726.94;6093873;23;20049;-87
2023/07/31 07:18:59;;;;;;;4.97;1.98;;;;;;;20.46;60.66;99727.56;6096414;23;20092;-87
2023/07/31 07:21:31;;;;;;;5.83;2.20;;;;;;;20.45;60.62;99727.78;6074512;23;22106;-86
2023/07/31 07:23:58;;;;;;;4.95;1.98;;;;;;;20.44;60.76;99729.63;6117888;23;20417;-87
2023/07/31 07:26:25;;;;;;;5.70;2.58;;;;;;;20.46;60.64;99719.50;6071301;23;20117;-86
2023/07/31 07:28:52;;;;;;;8.27;2.60;;;;;;;20.47;60.80;99714.91;6096070;23;22096;-87
2023/07/31 07:31:19;;;;;;;6.72;2.08;;;;;;;20.50;60.52;99709.94;6095085;23;20353;-87
2023/07/31 07:33:45;;;;;;;5.80;2.33;;;;;;;20.55;60.69;99709.38;6118955;23;20386;-87
2023/07/31 07:36:13;;;;;;;7.68;2.78;;;;;;;20.60;60.74;99717.69;6095289;23;20484;-87
2023/07/31 07:38:40;;;;;;;7.03;1.85;;;;;;;20.65;60.36;99725.16;6094880;23;20030;-87
2023/07/31 07:41:07;;;;;;;4.80;2.20;;;;;;;20.66;59.94;99724.13;6094623;23;20410;-87
2023/07/31 07:43:34;;;;;;;6.93;2.22;;;;;;;20.65;59.99;99725.16;6070413;23;20665;-85
2023/07/31 07:46:01;;;;;;;3.63;1.88;;;;;;;20.67;61.02;99723.09;6095730;23;20017;-87
2023/07/31 07:48:29;;;;;;;7.30;2.05;;;;;;;20.66;60.90;99714.19;6145465;23;20029;-86
2023/07/31 07:50:55;;;;;;;5.97;1.88;;;;;;;20.70;60.00;99711.88;6071442;23;20037;-86
2023/07/31 07:53:22;;;;;;;8.02;2.38;;;;;;;20.69;60.38;99708.38;6069983;23;20025;-87
2023/07/31 07:55:49;;;;;;;5.97;2.08;;;;;;;20.75;60.42;99704.00;6118611;23;20029;-87
2023/07/31 07:58:16;;;;;;;4.95;2.00;;;;;;;20.78;60.70;99700.91;6096294;23;20389;-87
2023/07/31 08:00:49;;;;;;;8.40;2.67;;;;;;;20.78;60.56;99701.72;6093900;23;20022;-86
2023/07/31 08:03:16;;;;;;;6.93;2.40;;;;;;;20.83;60.09;99703.00;6119325;23;20018;-87
2023/07/31 08:05:44;;;;;;;6.75;2.25;;;;;;;20.90;59.94;99684.94;6096109;23;20398;-87
2023/07/31 08:08:16;;;;;;;7.82;2.10;;;;;;;20.93;59.65;99674.53;6119251;23;20022;-87
2023/07/31 08:10:43;;;;;;;4.80;2.20;;;;;;;21.00;59.71;99679.97;6071090;23;20029;-87
2023/07/31 08:13:11;;;;;;;4.85;2.03;;;;;;;21.06;59.08;99692.63;6070680;23;20105;-88
2023/07/31 08:15:41;;;;;;;4.75;2.33;;;;;;;21.05;59.47;99692.84;6096166;23;20029;-88
2023/07/31 08:18:08;;;;;;;4.10;2.28;;;;;;;21.05;59.22;99688.25;6070721;23;20060;-88
2023/07/31 08:20:35;;;;;;;6.13;2.58;;;;;;;21.06;59.59;99684.50;6094847;23;20033;-86
2023/07/31 08:23:01;;;;;;;5.00;2.00;;;;;;;21.07;59.46;99679.97;6094717;23;20029;-88
2023/07/31 08:25:28;;;;;;;6.90;3.00;;;;;;;21.05;59.60;99682.88;6071215;23;20337;-89
2023/07/31 08:27:55;;;;;;;9.55;3.03;;;;;;;21.10;59.66;99690.34;6118431;23;20025;-89
2023/07/31 08:30:22;;;;;;;7.25;2.00;;;;;;;21.11;59.69;99678.50;6094918;23;20709;-89
2023/07/31 08:32:49;;;;;;;5.32;2.38;;;;;;;21.12;59.61;99666.69;6071491;23;20084;-87
2023/07/31 08:35:16;;;;;;;7.60;2.75;;;;;;;21.13;60.54;99676.41;6069470;23;20076;-87
2023/07/31 08:37:43;;;;;;;4.68;1.98;;;;;;;21.11;60.01;99673.09;6094769;23;20017;-87
2023/07/31 08:40:10;;;;;;;6.90;2.28;;;;;;;21.19;59.95;99675.56;6094876;23;20083;-87
2023/07/31 08:42:46;;;;;;;5.82;2.72;;;;;;;21.17;60.11;99661.47;6069424;23;20044;-88
2023/07/31 08:45:15;;;;;;;6.22;2.80;;;;;;;21.20;59.76;99655.66;6094399;23;20025;-86
2023/07/31 08:47:50;;;;;;;4.50;2.15;;;;;;;21.25;59.24;99647.75;6094438;23;20088;-87
2023/07/31 08:50:21;;;;;;;4.63;2.38;;;;;;;21.31;59.27;99655.00;6046505;23;20018;-87
2023/07/31 08:52:50;;;;;;;4.30;2.10;;;;;;;21.30;59.62;99655.22;6094736;23;20017;-86
2023/07/31 08:55:23;;;;;;;4.38;2.20;;;;;;;21.33;59.36;99661.03;6070305;23;20625;-87
2023/07/31 08:57:53;;;;;;;3.22;1.92;;;;;;;21.34;58.48;99657.28;6095197;23;20512;-89
2023/07/31 09:00:21;;;;;;;7.03;2.20;;;;;;;21.36;58.83;99646.28;6070995;23;20381;-87
2023/07/31 09:03:03;;;;;;;6.40;2.90;;;;;;;21.33;57.99;99644.00;6119633;23;21038;-88
2023/07/31 09:05:31;;;;;;;4.72;2.10;;;;;;;21.41;58.54;99643.81;6096581;23;20056;-86
2023/07/31 09:07:58;;;;;;;6.18;2.60;;;;;;;21.39;58.59;99646.69;6073859;23;20039;-88
2023/07/31 09:10:25;;;;;;;3.90;2.25;;;;;;;21.38;58.29;99645.06;6095968;23;20116;-87
2023/07/31 09:12:52;;;;;;;7.60;2.67;;;;;;;21.40;58.08;99642.16;6094985;23;20024;-88
2023/07/31 09:15:19;;;;;;;6.90;2.72;;;;;;;21.38;57.88;99631.56;6096921;23;20092;-87
2023/07/31 09:18:02;;;;;;;6.97;2.85;;;;;;;21.40;58.11;99637.56;6099769;23;20033;-87
2023/07/31 09:20:29;;;;;;;3.75;2.33;;;;;;;21.44;58.27;99637.97;6096544;23;20017;-87
2023/07/31 09:22:58;;;;;;;6.07;2.60;;;;;;;21.44;58.29;99636.09;6096181;23;20055;-88
2023/07/31 09:25:25;;;;;;;5.18;2.05;;;;;;;21.48;58.23;99638.41;6095124;23;20124;-88
2023/07/31 09:28:00;;;;;;;5.03;2.30;;;;;;;21.52;56.63;99634.22;6070484;23;20025;-88
2023/07/31 09:30:27;;;;;;;6.93;2.83;;;;;;;21.49;57.78;99629.25;6072505;23;20041;-86
2023/07/31 09:33:02;;;;;;;7.32;3.08;;;;;;;21.49;57.35;99635.47;6071615;23;20473;-87
2023/07/31 09:35:33;;;;;;;10.48;3.22;;;;;;;21.55;57.34;99626.53;6121360;23;20028;-89
2023/07/31 09:38:05;;;;;;;9.57;2.42;;;;;;;21.59;57.67;99624.22;6120049;23;20049;-87
2023/07/31 09:40:34;;;;;;;9.43;2.95;;;;;;;21.65;58.03;99608.00;6121326;23;20028;-87
2023/07/31 09:43:02;;;;;;;6.78;2.38;;;;;;;21.68;57.73;99607.56;6119703;23;20450;-89
2023/07/31 09:45:29;;;;;;;8.05;2.60;;;;;;;21.67;57.59;99605.06;6096540;23;20079;-88
2023/07/31 09:48:17;;;;;;;5.57;2.70;;;;;;;21.61;56.78;99605.94;6100717;23;20089;-86
2023/07/31 09:50:46;;;;;;;8.60;3.10;;;;;;;21.65;57.33;99605.28;6121229;23;20382;-88
2023/07/31 09:53:13;;;;;;;8.27;2.78;;;;;;;21.70;56.70;99603.81;6074411;23;20021;-91
2023/07/31 09:55:41;;;;;;;5.50;2.80;;;;;;;21.70;56.85;99620.03;6074091;23;20421;-92
2023/07/31 09:58:09;;;;;;;7.00;2.65;;;;;;;21.70;57.48;99610.03;6074440;23;20025;-91
2023/07/31 10:00:37;;;;;;;5.38;2.63;;;;;;;21.71;56.96;99613.59;6098132;23;20092;-90
2023/07/31 10:03:05;;;;;;;7.78;2.85;;;;;;;21.75;57.10;99610.22;6074247;23;20029;-92
2023/07/31 10:05:36;;;;;;;8.80;2.95;;;;;;;21.79;56.53;99606.06;6050239;23;20018;-89
2023/07/31 10:08:03;;;;;;;6.82;2.70;;;;;;;21.81;56.50;99584.25;6073668;23;20020;-90
2023/07/31 10:10:31;;;;;;;7.70;2.83;;;;;;;21.88;56.45;99591.28;6121949;23;20366;-90
2023/07/31 10:12:59;;;;;;;6.70;2.83;;;;;;;21.86;56.99;99592.53;6049813;23;20014;-91
2023/07/31 10:15:27;;;;;;;5.88;2.90;;;;;;;21.89;56.71;99579.41;6098474;23;20089;-91
2023/07/31 10:17:54;;;;;;;5.78;3.00;;;;;;;21.92;57.18;99586.25;6073490;23;20446;-91
2023/07/31 10:20:21;;;;;;;5.20;2.58;;;;;;;21.96;57.13;99576.66;6073964;23;20026;-94
2023/07/31 10:22:48;;;;;;;6.90;2.70;;;;;;;22.01;55.67;99568.75;6122707;23;20021;-92
2023/07/31 10:25:16;;;;;;;6.82;3.40;;;;;;;22.09;55.58;99567.66;6050651;23;20021;-93
2023/07/31 10:27:44;;;;;;;5.00;2.50;;;;;;;22.14;56.10;99564.31;6075281;23;20029;-95
2023/07/31 10:30:13;;;;;;;7.95;2.92;;;;;;;22.19;55.78;99564.47;6051378;23;20197;-93
2023/07/31 10:32:46;;;;;;;8.68;3.10;;;;;;;22.18;55.64;99569.03;6075519;23;20100;-94
2023/07/31 10:35:16;;;;;;;7.45;2.97;;;;;;;22.18;55.67;99571.75;6074162;23;20081;-92
2023/07/31 10:37:43;;;;;;;7.90;2.50;;;;;;;22.11;55.50;99579.09;6097495;23;20029;-92
2023/07/31 10:40:19;;;;;;;7.00;3.20;;;;;;;22.06;55.88;99571.63;6073896;23;20080;-94
2023/07/31 10:42:52;;;;;;;7.68;2.72;;;;;;;22.06;55.50;99577.03;6074263;23;20021;-93
2023/07/31 10:45:32;;;;;;;;;;;;;;;21.88;55.97;99566.13;6075194;23;20026;-93
2023/07/31 10:48:01;;;;;;;5.18;2.53;;;;;;;22.00;55.88;99569.75;6098384;23;19923;-94
2023/07/31 10:50:32;;;;;;;7.20;2.95;;;;;;;22.02;56.05;99572.25;6074920;23;20473;-93
2023/07/31 10:53:03;;;;;;;6.90;2.90;;;;;;;22.01;55.95;99579.56;6074958;23;20025;-92
2023/07/31 10:55:51;;;;;;;7.18;2.85;;;;;;;21.94;55.10;99577.94;6074575;23;20025;-95
2023/07/31 10:58:20;;;;;;;11.60;3.15;;;;;;;22.02;55.23;99574.97;6074580;23;20049;-94
2023/07/31 11:00:47;;;;;;;4.28;2.40;;;;;;;22.01;55.51;99567.91;6051078;23;20088;-94
2023/07/31 11:03:16;;;;;;;7.03;3.20;;;;;;;22.04;55.13;99570.19;6074175;23;20048;-93
2023/07/31 11:05:55;;;;;;;4.20;2.65;;;;;;;22.06;55.04;99562.69;6050468;23;20026;-93
2023/07/31 11:08:26;;;;;;;10.35;2.50;;;;;;;22.09;55.65;99570.34;6050466;23;20076;-94
2023/07/31 11:11:02;;;;;;;7.50;2.60;;;;;;;22.07;54.92;99567.84;6074088;23;20025;-94
2023/07/31 11:13:32;;;;;;;5.13;2.67;;;;;;;22.07;55.25;99558.94;6075699;23;20021;-94
2023/07/31 11:16:00;;;;;;;6.97;2.70;;;;;;;22.09;56.20;99551.44;6075262;23;20049;-93
2023/07/31 11:18:27;;;;;;;9.27;3.20;;;;;;;22.11;55.63;99552.03;6050970;23;20025;-92
2023/07/31 11:20:54;;;;;;;7.72;2.65;;;;;;;22.13;55.68;99549.94;6096780;23;20096;-94
2023/07/31 11:23:21;;;;;;;8.57;2.70;;;;;;;22.16;55.55;99546.81;6098952;23;20025;-95
2023/07/31 11:25:49;;;;;;;7.53;2.60;;;;;;;22.24;55.36;99545.75;6074372;23;20021;-95
2023/07/31 11:28:18;;;;;;;8.95;3.10;;;;;;;22.29;55.32;99541.34;6050616;23;20021;-91
2023/07/31 11:30:46;;;;;;;6.70;3.25;;;;;;;22.29;55.69;99533.22;6073866;23;20021;-93
2023/07/31 11:33:14;;;;;;;6.25;2.67;;;;;;;22.28;55.29;99533.44;6121111;23;20032;-94
2023/07/31 11:35:44;;;;;;;6.05;2.90;;;;;;;22.25;55.39;99550.09;6075955;23;20021;-95
2023/07/31 11:38:26;;;;;;;7.85;3.90;;;;;;;22.21;55.72;99543.47;6098905;23;20442;-94